createdAt,value
2018-12-05T00:02:33.094Z,87.18
2018-12-05T00:06:45.896Z,87.58
2018-12-05T00:11:00.601Z,87.73
2018-12-05T00:15:14.980Z,87.93
2018-12-05T00:19:30.087Z,87.80
2018-12-05T00:23:41.706Z,87.91
2018-12-05T00:27:51.361Z,88.47
2018-12-05T00:32:06.523Z,87.54
2018-12-05T00:36:20.460Z,86.83
2018-12-05T00:40:33.926Z,86.30
2018-12-05T00:44:45.780Z,86.72
2018-12-05T00:48:59.280Z,87.04
2018-12-05T00:53:15.512Z,87.65
2018-12-05T00:57:24.975Z,87.82
2018-12-05T01:01:39.208Z,89.26
2018-12-05T01:05:52.843Z,89.61
2018-12-05T01:10:04.398Z,89.34
2018-12-05T01:14:16.358Z,88.66
2018-12-05T01:18:23.803Z,88.79
2018-12-05T01:22:39.473Z,88.49
2018-12-05T01:26:49.479Z,88.86
2018-12-05T01:30:56.529Z,88.75
2018-12-05T01:35:13.871Z,88.96
2018-12-05T01:39:24.177Z,88.56
2018-12-05T01:43:53.930Z,88.00
2018-12-05T01:48:01.807Z,87.58
2018-12-05T01:52:08.837Z,87.26
2018-12-05T01:56:19.268Z,87.24
2018-12-05T02:00:30.146Z,87.29
2018-12-05T02:04:45.647Z,88.02
2018-12-05T02:09:07.077Z,89.39
2018-12-05T02:13:20.879Z,89.97
2018-12-05T02:17:32.656Z,89.65
2018-12-05T02:21:39.557Z,89.12
2018-12-05T02:25:55.847Z,88.60
2018-12-05T02:30:07.591Z,88.40
2018-12-05T02:34:18.646Z,88.85
2018-12-05T02:38:32.086Z,89.67
2018-12-05T02:42:42.448Z,89.75
2018-12-05T02:47:01.628Z,89.16
2018-12-05T02:51:14.315Z,89.22
2018-12-05T02:55:29.757Z,89.09
2018-12-05T02:59:39.996Z,88.67
2018-12-05T03:04:01.773Z,88.83
2018-12-05T03:08:10.526Z,88.62
2018-12-05T03:12:27.085Z,89.47
2018-12-05T03:16:36.646Z,89.70
2018-12-05T03:20:46.638Z,90.53
2018-12-05T03:24:55.745Z,89.65
2018-12-05T03:29:11.732Z,90.01
2018-12-05T03:33:25.455Z,90.96
2018-12-05T03:37:43.786Z,91.54
2018-12-05T03:42:01.987Z,91.93
2018-12-05T03:46:16.764Z,92.36
2018-12-05T03:50:32.579Z,92.00
2018-12-05T03:54:46.193Z,91.71
2018-12-05T03:58:59.627Z,91.58
2018-12-05T04:03:16.559Z,91.69
2018-12-05T04:07:29.198Z,91.29
2018-12-05T04:11:46.388Z,91.17
2018-12-05T04:15:57.611Z,91.94
2018-12-05T04:20:10.251Z,92.37
2018-12-05T04:24:19.031Z,92.53
2018-12-05T04:28:32.818Z,92.11
2018-12-05T04:32:50.769Z,92.27
2018-12-05T04:37:03.088Z,92.16
2018-12-05T04:41:12.035Z,92.33
2018-12-05T04:45:21.960Z,92.34
2018-12-05T04:49:34.744Z,91.68
2018-12-05T04:53:46.666Z,92.17
2018-12-05T04:57:55.710Z,91.67
2018-12-05T05:02:09.192Z,91.22
2018-12-05T05:06:17.924Z,91.36
2018-12-05T05:10:44.038Z,91.40
2018-12-05T05:14:59.526Z,91.12
2018-12-05T05:19:18.606Z,91.23
2018-12-05T05:23:33.251Z,91.23
2018-12-05T05:27:49.605Z,91.57
2018-12-05T05:32:03.302Z,91.46
2018-12-05T05:36:12.463Z,91.84
2018-12-05T05:40:25.171Z,92.04
2018-12-05T05:44:32.105Z,92.15
2018-12-05T05:48:45.771Z,92.22
2018-12-05T05:52:55.700Z,91.92
2018-12-05T05:57:11.144Z,91.54
2018-12-05T06:01:19.750Z,91.17
2018-12-05T06:05:34.507Z,91.22
2018-12-05T06:09:43.839Z,91.17
2018-12-05T06:13:55.853Z,91.20
2018-12-05T06:18:06.646Z,91.31
2018-12-05T06:22:22.033Z,91.31
2018-12-05T06:26:38.094Z,91.07
2018-12-05T06:30:54.213Z,90.92
2018-12-05T06:35:20.521Z,90.79
2018-12-05T06:39:30.731Z,90.54
2018-12-05T06:43:45.091Z,89.69
2018-12-05T06:47:54.235Z,89.22
2018-12-05T06:52:07.684Z,89.04
2018-12-05T06:56:18.643Z,89.02
2018-12-05T07:00:31.247Z,88.73
2018-12-05T07:04:44.613Z,89.06
2018-12-05T07:08:56.331Z,88.99
2018-12-05T07:13:05.490Z,88.91
2018-12-05T07:17:15.331Z,89.10
2018-12-05T07:21:27.877Z,88.96
2018-12-05T07:25:39.529Z,88.84
2018-12-05T07:29:57.565Z,89.04
2018-12-05T07:34:16.132Z,88.92
2018-12-05T07:42:56.830Z,88.91
2018-12-05T07:47:08.614Z,89.20
2018-12-05T07:51:26.034Z,89.20
2018-12-05T07:55:41.127Z,88.95
2018-12-05T07:59:55.522Z,88.76
2018-12-05T08:04:09.048Z,88.60
2018-12-05T08:08:20.628Z,88.36
2018-12-05T08:12:31.824Z,88.49
2018-12-05T08:16:49.839Z,88.35
2018-12-05T08:20:58.313Z,88.39
2018-12-05T08:25:08.693Z,88.11
2018-12-05T08:29:19.395Z,87.76
2018-12-05T08:33:29.195Z,88.13
2018-12-05T08:37:44.846Z,87.43
2018-12-05T08:41:53.349Z,87.77
2018-12-05T08:46:03.333Z,87.48
2018-12-05T08:50:15.987Z,86.96
2018-12-05T08:54:28.816Z,86.70
2018-12-05T08:58:43.939Z,87.14
2018-12-05T09:02:59.155Z,86.62
2018-12-05T09:07:11.786Z,85.85
2018-12-05T09:11:26.164Z,85.46
2018-12-05T09:15:38.833Z,84.93
2018-12-05T09:19:57.671Z,84.83
2018-12-05T09:24:07.693Z,84.65
2018-12-05T09:28:17.191Z,84.54
2018-12-05T09:32:28.970Z,84.26
2018-12-05T09:36:39.791Z,84.09
2018-12-05T09:40:47.098Z,84.09
2018-12-05T09:45:03.234Z,83.96
2018-12-05T09:49:15.058Z,83.49
2018-12-05T09:53:26.899Z,83.71
2018-12-05T09:57:41.629Z,83.25
2018-12-05T10:01:51.700Z,82.80
2018-12-05T10:06:05.192Z,82.07
2018-12-05T10:10:24.304Z,81.40
2018-12-05T10:14:30.899Z,81.19
2018-12-05T10:18:42.852Z,80.77
2018-12-05T10:22:51.416Z,79.26
2018-12-05T10:27:06.964Z,78.63
2018-12-05T10:31:19.577Z,79.27
2018-12-05T10:35:29.835Z,78.68
2018-12-05T10:39:44.840Z,79.56
2018-12-05T10:44:00.529Z,80.41
2018-12-05T10:48:11.009Z,80.37
2018-12-05T10:52:30.893Z,80.54
2018-12-05T10:56:47.046Z,80.82
2018-12-05T11:01:13.091Z,81.42
2018-12-05T11:05:39.180Z,81.03
2018-12-05T11:10:07.369Z,81.19
2018-12-05T11:14:32.297Z,81.24
2018-12-05T11:18:58.631Z,81.36
2018-12-05T11:23:29.513Z,80.71
2018-12-05T11:27:42.087Z,81.42
2018-12-05T11:31:54.582Z,81.57
2018-12-05T11:36:07.241Z,81.61
2018-12-05T11:40:21.691Z,81.64
2018-12-05T11:44:33.700Z,81.79
2018-12-05T11:48:42.044Z,82.58
2018-12-05T11:52:55.661Z,82.73
2018-12-05T11:57:06.437Z,82.69
2018-12-05T12:01:19.095Z,82.98
2018-12-05T12:05:31.623Z,82.63
2018-12-05T12:09:47.974Z,82.70
2018-12-05T12:13:56.888Z,83.08
2018-12-05T12:18:10.472Z,82.80
2018-12-05T12:22:29.321Z,82.24
2018-12-05T12:26:37.846Z,81.51
2018-12-05T12:30:46.526Z,81.55
2018-12-05T12:35:03.317Z,80.71
2018-12-05T12:39:20.873Z,81.03
2018-12-05T12:43:33.039Z,80.65
2018-12-05T12:47:52.046Z,80.39
2018-12-05T12:52:04.715Z,80.72
2018-12-05T12:56:14.683Z,81.03
2018-12-05T13:00:28.956Z,81.15
2018-12-05T13:04:44.370Z,80.70
2018-12-05T13:08:55.942Z,81.05
2018-12-05T13:13:10.733Z,80.33
2018-12-05T13:17:22.389Z,80.62
2018-12-05T13:21:36.731Z,80.98
2018-12-05T13:25:45.987Z,80.85
2018-12-05T13:30:00.252Z,81.05
2018-12-05T13:34:08.585Z,81.42
2018-12-05T13:38:26.056Z,82.24
2018-12-05T13:42:36.951Z,82.96
2018-12-05T13:46:59.170Z,82.57
2018-12-05T13:51:14.535Z,82.24
2018-12-05T13:55:23.944Z,82.46
2018-12-05T13:59:38.387Z,82.45
2018-12-05T14:03:45.735Z,82.37
2018-12-05T14:07:54.449Z,82.52
2018-12-05T14:12:04.078Z,83.32
2018-12-05T14:16:24.742Z,83.12
2018-12-05T14:20:41.642Z,83.28
2018-12-05T14:24:55.108Z,83.50
2018-12-05T14:33:30.717Z,84.44
2018-12-05T14:37:47.594Z,84.42
2018-12-05T14:42:00.342Z,84.62
2018-12-05T14:46:12.662Z,85.10
2018-12-05T14:50:24.350Z,85.13
2018-12-05T14:54:37.926Z,84.91
2018-12-05T14:58:55.037Z,85.30
2018-12-05T15:03:04.367Z,86.29
2018-12-05T15:07:15.076Z,86.51
2018-12-05T15:11:26.749Z,86.66
2018-12-05T15:15:34.236Z,86.90
2018-12-05T15:19:46.885Z,86.87
2018-12-05T15:24:02.209Z,87.18
2018-12-05T15:28:16.969Z,87.31
2018-12-05T15:32:27.883Z,87.67
2018-12-05T15:36:45.382Z,88.13
2018-12-05T15:40:58.023Z,88.81
2018-12-05T15:45:06.405Z,89.18
2018-12-05T15:49:16.287Z,89.85
2018-12-05T15:53:26.159Z,90.15
2018-12-05T15:57:35.181Z,90.44
2018-12-05T16:01:44.526Z,90.77
2018-12-05T16:05:54.404Z,91.38
2018-12-05T16:10:05.103Z,92.18
2018-12-05T16:14:16.842Z,92.44
2018-12-05T16:18:28.454Z,92.50
2018-12-05T16:22:39.243Z,92.55
2018-12-05T16:26:48.190Z,92.71
2018-12-05T16:30:58.949Z,92.60
2018-12-05T16:35:16.165Z,92.63
2018-12-05T16:39:29.381Z,92.51
2018-12-05T16:43:38.377Z,92.41
2018-12-05T16:47:46.605Z,92.37
2018-12-05T16:51:53.193Z,92.52
2018-12-05T16:56:04.121Z,92.25
2018-12-05T17:00:20.069Z,92.24
2018-12-05T17:04:29.070Z,92.35
2018-12-05T17:08:47.951Z,92.41
2018-12-05T17:12:57.954Z,92.45
2018-12-05T17:17:08.005Z,92.42
2018-12-05T17:21:23.278Z,92.38
2018-12-05T17:25:31.970Z,92.72
2018-12-05T17:29:42.705Z,92.90
2018-12-05T17:33:58.122Z,92.93
2018-12-05T17:38:13.502Z,93.03
2018-12-05T17:42:27.559Z,93.33
2018-12-05T17:46:37.617Z,93.64
2018-12-05T17:50:48.318Z,94.00
2018-12-05T17:55:05.797Z,94.42
2018-12-05T17:59:16.711Z,94.84
2018-12-05T18:03:31.948Z,95.18
2018-12-05T18:07:49.034Z,95.06
2018-12-05T18:11:58.218Z,95.11
2018-12-05T18:16:13.540Z,94.95
2018-12-05T18:20:26.156Z,95.17
2018-12-05T18:24:38.693Z,95.21
2018-12-05T18:28:49.491Z,95.21
2018-12-05T18:33:04.329Z,95.24
2018-12-05T18:37:17.734Z,95.25
2018-12-05T18:41:30.604Z,95.29
2018-12-05T18:45:42.469Z,95.25
2018-12-05T18:49:54.134Z,95.33
2018-12-05T18:54:10.322Z,95.29
2018-12-05T18:58:18.949Z,95.08
2018-12-05T19:02:38.161Z,95.06
2018-12-05T19:06:55.335Z,94.99
2018-12-05T19:11:12.462Z,94.91
2018-12-05T19:15:24.135Z,94.79
2018-12-05T19:19:38.628Z,94.77
2018-12-05T19:23:53.199Z,94.43
2018-12-05T19:28:09.422Z,94.25
2018-12-05T19:32:20.391Z,94.71
2018-12-05T19:36:34.030Z,93.66
2018-12-05T19:40:44.967Z,93.51
2018-12-05T19:44:57.347Z,93.18
2018-12-05T19:49:05.998Z,92.94
2018-12-05T19:53:18.121Z,92.92
2018-12-05T19:57:26.129Z,93.02
2018-12-05T20:01:38.852Z,92.65
2018-12-05T20:05:56.029Z,92.38
2018-12-05T20:10:03.527Z,92.35
2018-12-05T20:14:15.654Z,92.28
2018-12-05T20:18:29.353Z,92.37
2018-12-05T20:22:41.769Z,92.39
2018-12-05T20:26:54.119Z,92.53
2018-12-05T20:31:01.798Z,92.34
2018-12-05T20:35:19.369Z,92.18
2018-12-05T20:39:28.440Z,92.22
2018-12-05T20:43:42.312Z,92.19
2018-12-05T20:47:59.186Z,92.21
2018-12-05T20:52:10.083Z,91.41
2018-12-05T20:56:27.146Z,91.63
2018-12-05T21:00:38.091Z,91.67
2018-12-05T21:04:51.013Z,91.54
2018-12-05T21:09:06.375Z,91.56
2018-12-05T21:13:20.232Z,91.39
2018-12-05T21:17:30.164Z,91.35
2018-12-05T21:21:46.283Z,91.24
2018-12-05T21:26:02.698Z,91.66
2018-12-05T21:30:15.697Z,91.96
2018-12-05T21:34:27.632Z,92.14
2018-12-05T21:38:41.381Z,92.20
2018-12-05T21:42:53.149Z,92.34
2018-12-05T21:47:05.905Z,92.18
2018-12-05T21:51:15.028Z,92.15
2018-12-05T21:55:26.449Z,92.11
2018-12-05T21:59:45.422Z,92.07
2018-12-05T22:03:55.663Z,91.97
2018-12-05T22:08:12.009Z,92.06
2018-12-05T22:12:23.783Z,92.17
2018-12-05T22:16:34.994Z,92.11
2018-12-05T22:21:44.102Z,91.90
2018-12-05T22:25:50.319Z,92.26
2018-12-05T22:30:00.275Z,92.60
2018-12-05T22:34:12.953Z,92.52
2018-12-05T22:38:26.417Z,92.76
2018-12-05T22:42:35.334Z,92.78
2018-12-05T22:46:47.909Z,92.87
2018-12-05T22:51:03.301Z,92.69
2018-12-05T22:55:15.378Z,92.44
2018-12-05T22:59:35.694Z,92.54
2018-12-05T23:03:47.819Z,92.58
2018-12-05T23:08:00.357Z,92.53
2018-12-05T23:12:15.794Z,92.33
2018-12-05T23:16:31.112Z,92.33
2018-12-05T23:20:44.609Z,92.24
2018-12-05T23:24:56.970Z,92.13
2018-12-05T23:29:02.787Z,92.35
2018-12-05T23:33:12.137Z,92.78
2018-12-05T23:37:24.763Z,92.63
2018-12-05T23:41:38.536Z,92.41
2018-12-05T23:45:56.806Z,92.53
2018-12-05T23:50:07.619Z,93.24
2018-12-05T23:54:17.611Z,93.78
2018-12-05T23:58:32.012Z,93.56
